Time;durP1;ratioP1;P1;durP2;ratioP2;P2;SDS_P1;SDS_P2;PMS_P1;PMS_P2;Temp;Humidity;BMP_temperature;BMP_pressure;BME280_temperature;BME280_humidity;BME280_pressure;Samples;Min_cycle;Max_cycle;Signal;HPM_P1;HPM_P2
2022/02/19 00:01:25;;;;;;;0.00;0.00;;;;;;;20.84;49.09;97824.84;5032592;28;20021;-63
2022/02/19 00:03:51;;;;;;;0.40;0.10;;;;;;;20.92;51.01;97821.63;5033507;28;20334;-63
2022/02/19 00:06:16;;;;;;;0.52;0.30;;;;;;;20.97;52.83;97808.00;5052424;28;20110;-63
2022/02/19 00:08:42;;;;;;;4.03;0.70;;;;;;;21.00;54.78;97810.25;5052252;28;20032;-63
2022/02/19 00:11:07;;;;;;;0.35;0.00;;;;;;;21.05;55.36;97810.28;5052216;28;20365;-63
2022/02/19 00:13:32;;;;;;;0.13;0.10;;;;;;;21.09;55.17;97796.91;5052210;28;20021;-62
2022/02/19 00:15:58;;;;;;;0.55;0.25;;;;;;;21.12;56.81;97783.56;5052203;28;20027;-65
2022/02/19 00:18:23;;;;;;;0.25;0.05;;;;;;;21.12;57.60;97783.56;5052339;28;20040;-63
2022/02/19 00:20:49;;;;;;;0.70;0.15;;;;;;;21.16;58.88;97773.75;5052050;28;20460;-63
2022/02/19 00:23:14;;;;;;;0.75;0.30;;;;;;;21.18;58.17;97766.13;5052416;28;20044;-63
2022/02/19 00:25:39;;;;;;;1.17;0.20;;;;;;;21.18;59.63;97762.56;5051987;28;20021;-63
2022/02/19 00:28:04;;;;;;;0.30;0.10;;;;;;;21.19;59.93;97762.31;5052180;28;20024;-63
2022/02/19 00:30:30;;;;;;;0.20;0.20;;;;;;;21.23;60.23;97752.50;5052213;28;20029;-63
2022/02/19 00:32:55;;;;;;;0.55;0.20;;;;;;;21.24;60.05;97751.44;5051881;28;20025;-64
2022/02/19 00:35:22;;;;;;;0.20;0.10;;;;;;;21.26;59.97;97743.81;5036994;28;20030;-64
2022/02/19 00:37:47;;;;;;;0.25;0.10;;;;;;;21.29;60.25;97740.53;5031882;28;20468;-64
2022/02/19 00:40:12;;;;;;;1.40;0.20;;;;;;;21.34;60.69;97747.97;5032253;28;20030;-63
2022/02/19 00:42:38;;;;;;;0.30;0.10;;;;;;;21.35;60.79;97735.13;5033795;28;20063;-64
2022/02/19 00:45:03;;;;;;;0.90;0.20;;;;;;;21.37;60.27;97730.22;5036322;28;20029;-63
2022/02/19 00:47:29;;;;;;;0.52;0.10;;;;;;;21.40;60.41;97735.13;5036009;28;20034;-63
2022/02/19 00:49:54;;;;;;;0.30;0.20;;;;;;;21.40;60.72;97729.66;5035729;28;20032;-63
2022/02/19 00:52:19;;;;;;;0.38;0.13;;;;;;;21.43;60.80;97724.50;5035871;28;20026;-63
2022/02/19 00:54:45;;;;;;;0.73;0.20;;;;;;;21.42;60.25;97716.56;5035517;28;20048;-64
2022/02/19 00:57:10;;;;;;;0.80;0.10;;;;;;;21.48;59.89;97710.03;5035840;28;20477;-63
2022/02/19 00:59:35;;;;;;;0.75;0.20;;;;;;;21.49;60.19;97701.56;5035705;28;20055;-63
2022/02/19 01:02:02;;;;;;;0.25;0.10;;;;;;;21.53;59.32;97704.59;5035665;28;20013;-63
2022/02/19 01:04:27;;;;;;;0.35;0.15;;;;;;;21.55;58.83;97699.69;5048421;28;20407;-63
2022/02/19 01:06:52;;;;;;;1.17;0.43;;;;;;;21.57;58.94;97698.31;5055443;28;20029;-63
2022/02/19 01:09:17;;;;;;;0.85;0.30;;;;;;;21.58;59.32;97689.03;5055579;28;20464;-63
2022/02/19 01:11:43;;;;;;;0.55;0.13;;;;;;;21.61;58.83;97693.13;5055233;28;20083;-64
2022/02/19 01:14:09;;;;;;;0.65;0.22;;;;;;;21.62;58.87;97681.94;5055444;28;20028;-63
2022/02/19 01:16:35;;;;;;;1.75;0.57;;;;;;;21.65;58.51;97682.47;5055506;28;20063;-63
2022/02/19 01:19:01;;;;;;;1.17;0.30;;;;;;;21.65;57.72;97672.38;5055302;28;20320;-64
2022/02/19 01:21:26;;;;;;;0.10;0.10;;;;;;;21.66;58.28;97674.00;5055468;28;20463;-63
2022/02/19 01:23:51;;;;;;;0.50;0.13;;;;;;;21.67;58.08;97664.75;5055038;28;20033;-63
2022/02/19 01:26:16;;;;;;;0.17;0.17;;;;;;;21.67;58.43;97664.75;5055340;28;20023;-63
2022/02/19 01:28:42;;;;;;;0.55;0.30;;;;;;;21.67;57.15;97662.00;5055414;28;20353;-63
2022/02/19 01:31:07;;;;;;;0.15;0.10;;;;;;;21.67;57.24;97653.81;5055050;28;20029;-63
2022/02/19 01:33:33;;;;;;;0.17;0.10;;;;;;;21.68;57.65;97655.47;5049958;28;20029;-63
2022/02/19 01:35:58;;;;;;;0.28;0.10;;;;;;;21.69;57.29;97657.09;5035540;28;20025;-63
2022/02/19 01:38:24;;;;;;;0.28;0.10;;;;;;;21.68;56.85;97650.00;5035225;28;20120;-63
2022/02/19 01:40:50;;;;;;;0.10;0.10;;;;;;;21.70;57.34;97647.81;5034869;28;20017;-63
2022/02/19 01:43:16;;;;;;;0.17;0.15;;;;;;;21.72;56.92;97648.34;5035056;28;20037;-63
2022/02/19 01:45:46;;;;;;;0.50;0.10;;;;;;;21.73;56.09;97650.00;5034688;28;20052;-63
2022/02/19 01:48:11;;;;;;;2.10;0.30;;;;;;;21.73;56.06;97635.50;5034976;28;20500;-63
2022/02/19 01:50:37;;;;;;;0.10;0.10;;;;;;;21.72;56.40;97629.22;5034738;28;20017;-63
2022/02/19 01:53:03;;;;;;;1.08;0.20;;;;;;;21.73;56.25;97628.13;5034535;28;20388;-63
2022/02/19 01:55:28;;;;;;;1.55;0.10;;;;;;;21.74;56.25;97618.84;5034167;28;20021;-63
2022/02/19 01:57:55;;;;;;;0.20;0.10;;;;;;;21.74;56.32;97618.84;5034435;28;20109;-64
2022/02/19 02:00:20;;;;;;;0.35;0.08;;;;;;;21.76;56.18;97618.56;5034735;28;20469;-63
2022/02/19 02:02:46;;;;;;;0.30;0.10;;;;;;;21.74;56.61;97607.91;5034729;28;20036;-63
2022/02/19 02:05:11;;;;;;;0.17;0.13;;;;;;;21.74;56.08;97605.16;5049515;28;20107;-63
2022/02/19 02:07:37;;;;;;;0.20;0.10;;;;;;;21.76;55.25;97593.94;5034354;28;20231;-63
2022/02/19 02:10:02;;;;;;;0.10;0.10;;;;;;;21.75;55.67;97598.59;5034499;28;20032;-64
2022/02/19 02:12:28;;;;;;;0.43;0.20;;;;;;;21.75;55.65;97587.66;5034700;28;20026;-63
2022/02/19 02:14:53;;;;;;;0.22;0.10;;;;;;;21.76;55.91;97580.28;5046656;28;20045;-63
2022/02/19 02:17:18;;;;;;;0.32;0.05;;;;;;;21.77;55.55;97582.75;5054353;28;20040;-64
2022/02/19 02:19:44;;;;;;;0.17;0.10;;;;;;;21.77;55.16;97576.44;5054037;28;20354;-64
2022/02/19 02:22:11;;;;;;;0.70;0.08;;;;;;;21.77;55.27;97563.59;5052944;28;20025;-64
2022/02/19 02:24:37;;;;;;;0.40;0.10;;;;;;;21.79;56.03;97563.34;5049885;28;20029;-64
2022/02/19 02:27:05;;;;;;;0.40;0.20;;;;;;;21.78;55.59;97556.22;5034100;28;20029;-64
2022/02/19 02:29:43;;;;;;;0.45;0.20;;;;;;;21.78;55.38;97561.69;5034217;28;20100;-63
2022/02/19 02:32:09;;;;;;;1.75;0.10;;;;;;;21.78;55.35;97561.69;5034037;28;20457;-64
2022/02/19 02:34:46;;;;;;;1.45;0.30;;;;;;;21.77;54.93;97569.06;5046120;28;20033;-63
2022/02/19 02:37:12;;;;;;;1.17;0.28;;;;;;;21.78;55.39;97558.97;5053956;28;20074;-64
2022/02/19 02:39:37;;;;;;;0.15;0.10;;;;;;;21.77;55.60;97560.88;5053676;28;20025;-64
2022/02/19 02:42:03;;;;;;;0.52;0.20;;;;;;;21.77;55.00;97555.41;5053761;28;20021;-63
2022/02/19 02:44:28;;;;;;;0.82;0.20;;;;;;;21.77;55.11;97555.41;5053795;28;20464;-63
2022/02/19 02:46:53;;;;;;;0.38;0.10;;;;;;;21.79;55.28;97553.22;5053557;28;20044;-63
2022/02/19 02:49:19;;;;;;;0.22;0.00;;;;;;;21.79;54.68;97553.22;5053686;28;20035;-63
2022/02/19 02:51:44;;;;;;;0.75;0.20;;;;;;;21.80;55.20;97551.31;5053280;28;20021;-63
2022/02/19 02:54:09;;;;;;;0.57;0.05;;;;;;;21.79;55.42;97545.00;5053215;28;20045;-63
2022/02/19 02:56:34;;;;;;;0.65;0.10;;;;;;;21.77;55.28;97541.72;5053531;28;20041;-64
2022/02/19 02:59:00;;;;;;;0.90;0.13;;;;;;;21.77;55.95;97552.66;5053375;28;20052;-63
2022/02/19 03:01:25;;;;;;;1.38;0.20;;;;;;;21.78;55.45;97546.09;5051140;28;20021;-64
2022/02/19 03:03:50;;;;;;;1.00;0.13;;;;;;;21.80;54.95;97541.19;5053091;28;20075;-63
2022/02/19 03:06:15;;;;;;;0.77;0.30;;;;;;;21.80;54.95;97538.44;5053323;28;20376;-63
2022/02/19 03:08:41;;;;;;;0.30;0.10;;;;;;;21.79;55.70;97536.00;5053216;28;20027;-63
2022/02/19 03:11:06;;;;;;;0.40;0.05;;;;;;;21.79;55.56;97539.53;5053130;28;20259;-63
2022/02/19 03:13:31;;;;;;;1.10;0.50;;;;;;;21.79;55.31;97531.34;5048209;28;20380;-63
2022/02/19 03:15:57;;;;;;;0.35;0.10;;;;;;;21.79;55.00;97531.34;5031783;28;20026;-63
2022/02/19 03:18:22;;;;;;;0.65;0.20;;;;;;;21.78;54.87;97535.16;5033288;28;20017;-63
2022/02/19 03:20:47;;;;;;;0.43;0.10;;;;;;;21.78;55.22;97532.44;5031691;28;20025;-63
2022/02/19 03:23:12;;;;;;;0.70;0.10;;;;;;;21.79;54.58;97536.81;5033249;28;20475;-63
2022/02/19 03:25:38;;;;;;;0.95;0.10;;;;;;;21.81;55.31;97542.81;5032920;28;20021;-63
2022/02/19 03:28:03;;;;;;;0.40;0.05;;;;;;;21.79;55.55;97542.28;5032992;28;20033;-63
2022/02/19 03:30:29;;;;;;;0.63;0.00;;;;;;;21.79;54.70;97536.81;5040034;28;20092;-63
2022/02/19 03:32:54;;;;;;;0.80;0.10;;;;;;;21.80;55.36;97535.72;5052609;28;20120;-63
2022/02/19 03:35:20;;;;;;;0.43;0.15;;;;;;;21.79;54.81;97536.00;5052951;28;20491;-64
2022/02/19 03:37:45;;;;;;;0.80;0.17;;;;;;;21.79;55.16;97542.28;5052530;28;20025;-63
2022/02/19 03:40:11;;;;;;;0.60;0.10;;;;;;;21.76;54.91;97542.84;5052848;28;20021;-63
2022/02/19 03:42:39;;;;;;;0.90;0.20;;;;;;;21.78;54.71;97546.09;5052640;28;20025;-63
2022/02/19 03:45:07;;;;;;;0.77;0.08;;;;;;;21.78;55.23;97543.38;5052548;28;20037;-62
2022/02/19 03:47:33;;;;;;;0.28;0.10;;;;;;;21.78;55.47;97546.09;5052677;28;20031;-63
2022/02/19 03:49:58;;;;;;;1.25;0.30;;;;;;;21.80;55.13;97551.31;5052542;28;20108;-63
2022/02/19 03:52:24;;;;;;;2.25;0.20;;;;;;;21.78;54.69;97561.69;5052558;28;20491;-63
2022/02/19 03:54:49;;;;;;;0.20;0.10;;;;;;;21.79;55.39;97555.94;5052089;28;20048;-63
2022/02/19 03:57:14;;;;;;;0.30;0.17;;;;;;;21.78;54.78;97557.03;5052602;28;20057;-63
2022/02/19 03:59:40;;;;;;;0.55;0.20;;;;;;;21.79;54.84;97566.88;5049114;28;20055;-63
2022/02/19 04:02:05;;;;;;;0.57;0.20;;;;;;;21.80;54.92;97565.78;5032468;28;20416;-64
2022/02/19 04:04:32;;;;;;;1.17;0.52;;;;;;;21.79;54.88;97557.88;5032498;28;20034;-63
2022/02/19 04:06:57;;;;;;;0.30;0.10;;;;;;;21.80;55.27;97565.78;5032310;28;20025;-63
2022/02/19 04:09:22;;;;;;;1.30;0.57;;;;;;;21.79;54.58;97566.06;5032516;28;20075;-63
2022/02/19 04:11:48;;;;;;;0.93;0.15;;;;;;;21.81;55.08;97566.59;5032054;28;20472;-63
2022/02/19 04:14:13;;;;;;;1.13;0.17;;;;;;;21.78;54.91;97567.16;5032544;28;20029;-63
2022/02/19 04:16:38;;;;;;;0.60;0.20;;;;;;;21.78;54.81;97570.72;5033351;28;20484;-63
2022/02/19 04:19:04;;;;;;;0.13;0.10;;;;;;;21.81;54.66;97567.44;5038884;28;20147;-63
2022/02/19 04:21:29;;;;;;;0.73;0.10;;;;;;;21.80;55.14;97573.16;5039063;28;20022;-63
2022/02/19 04:23:54;;;;;;;0.10;0.10;;;;;;;21.80;54.38;97578.63;5038443;28;20384;-63
2022/02/19 04:26:19;;;;;;;0.77;0.17;;;;;;;21.79;54.60;97577.81;5039298;28;20104;-63
2022/02/19 04:28:45;;;;;;;0.88;0.17;;;;;;;21.79;54.90;97583.28;5057892;28;20071;-63
2022/02/19 04:31:10;;;;;;;1.38;0.35;;;;;;;21.77;54.96;97582.75;5058797;28;20417;-63
2022/02/19 04:33:35;;;;;;;0.70;0.28;;;;;;;21.81;54.57;97583.84;5058692;28;20440;-62
2022/02/19 04:36:01;;;;;;;0.68;0.20;;;;;;;21.79;55.12;97586.03;5058718;28;20413;-63
2022/02/19 04:38:27;;;;;;;0.45;0.20;;;;;;;21.80;54.93;97584.94;5059136;28;20737;-63
2022/02/19 04:40:52;;;;;;;0.55;0.20;;;;;;;21.80;55.18;97593.13;5058552;28;20302;-63
2022/02/19 04:43:17;;;;;;;1.20;0.22;;;;;;;21.79;55.47;97596.97;5059098;28;20111;-63
2022/02/19 04:45:43;;;;;;;0.57;0.10;;;;;;;21.77;54.54;97603.78;5058513;28;20024;-63
2022/02/19 04:48:08;;;;;;;0.80;0.30;;;;;;;21.79;55.12;97602.44;5058684;28;20518;-63
2022/02/19 04:50:33;;;;;;;0.20;0.10;;;;;;;21.79;54.98;97601.59;5058677;28;20028;-63
2022/02/19 04:52:59;;;;;;;0.22;0.10;;;;;;;21.78;54.44;97606.25;5058517;28;20037;-63
2022/02/19 04:55:24;;;;;;;1.10;0.10;;;;;;;21.79;54.65;97612.53;5058527;28;20072;-63
2022/02/19 04:57:49;;;;;;;0.30;0.25;;;;;;;21.78;54.85;97617.19;5046376;28;20382;-63
2022/02/19 05:00:17;;;;;;;0.65;0.20;;;;;;;21.79;55.09;97616.09;5038912;28;20025;-63
2022/02/19 05:02:42;;;;;;;0.32;0.10;;;;;;;22.89;52.43;97615.56;5038453;28;20021;-63
2022/02/19 05:05:10;;;;;;;0.90;0.10;;;;;;;23.22;52.57;97618.75;5038854;28;20051;-63
2022/02/19 05:07:35;;;;;;;0.30;0.20;;;;;;;23.40;51.75;97615.38;5038356;28;20025;-63
2022/02/19 05:10:02;;;;;;;0.40;0.10;;;;;;;23.56;51.65;97629.81;5038797;28;20051;-63
2022/02/19 05:12:27;;;;;;;1.00;0.20;;;;;;;23.65;51.59;97623.47;5038437;28;20051;-63
2022/02/19 05:14:53;;;;;;;0.10;0.10;;;;;;;23.75;51.76;97621.78;5038365;28;20500;-63
2022/02/19 05:17:18;;;;;;;0.77;0.17;;;;;;;23.85;51.86;97627.19;5038511;28;20021;-63
2022/02/19 05:19:43;;;;;;;0.60;0.10;;;;;;;23.91;51.73;97639.78;5038214;28;20025;-63
2022/02/19 05:22:09;;;;;;;1.10;0.30;;;;;;;23.97;51.20;97631.22;5038455;28;20491;-63
2022/02/19 05:24:34;;;;;;;0.35;0.20;;;;;;;24.04;52.21;97636.41;5038351;28;20071;-63
2022/02/19 05:27:00;;;;;;;0.75;0.17;;;;;;;24.08;52.11;97653.94;5044791;28;20033;-63
2022/02/19 05:29:25;;;;;;;0.57;0.10;;;;;;;24.13;51.59;97645.66;5055128;28;20025;-63
2022/02/19 05:31:50;;;;;;;0.38;0.10;;;;;;;24.19;51.82;97655.53;5053483;28;20128;-63
2022/02/19 05:34:15;;;;;;;2.05;0.20;;;;;;;24.22;52.11;97654.94;5055208;28;20052;-63
2022/02/19 05:36:41;;;;;;;1.48;0.10;;;;;;;24.26;51.91;97656.00;5054986;28;20278;-63
2022/02/19 05:39:06;;;;;;;0.08;0.03;;;;;;;24.30;52.50;97657.09;5054980;28;20036;-63
2022/02/19 05:41:31;;;;;;;1.27;0.20;;;;;;;24.33;51.97;97654.88;5055058;28;20067;-63
2022/02/19 05:43:57;;;;;;;0.85;0.10;;;;;;;24.36;52.81;97670.78;5054751;28;20025;-62
2022/02/19 05:46:22;;;;;;;1.60;0.20;;;;;;;24.37;52.56;97675.19;5054931;28;20457;-63
2022/02/19 05:48:47;;;;;;;0.68;0.20;;;;;;;24.39;52.30;97673.78;5054685;28;20047;-63
2022/02/19 05:51:13;;;;;;;0.10;0.10;;;;;;;24.45;52.19;97678.13;5054813;28;20029;-63
2022/02/19 05:53:38;;;;;;;0.38;0.22;;;;;;;24.46;52.69;97684.41;5054397;28;20080;-63
2022/02/19 05:56:04;;;;;;;0.22;0.10;;;;;;;24.52;51.74;97686.00;5054607;28;20115;-63
2022/02/19 05:58:29;;;;;;;1.08;0.25;;;;;;;24.54;52.28;97694.81;5035176;28;20065;-63
2022/02/19 06:00:55;;;;;;;0.68;0.30;;;;;;;24.56;52.29;97693.41;5034415;28;20021;-63
2022/02/19 06:03:20;;;;;;;0.98;0.30;;;;;;;24.55;52.32;97691.78;5034662;28;20026;-63
2022/02/19 06:05:45;;;;;;;0.85;0.10;;;;;;;24.56;52.49;97692.59;5034368;28;20029;-63
2022/02/19 06:08:11;;;;;;;0.90;0.30;;;;;;;24.60;52.62;97699.13;5034860;28;20187;-63
2022/02/19 06:10:36;;;;;;;0.20;0.10;;;;;;;24.61;52.31;97706.28;5034521;28;20044;-63
2022/02/19 06:13:02;;;;;;;0.20;0.00;;;;;;;24.62;52.54;97718.91;5033052;28;20026;-63
2022/02/19 06:15:27;;;;;;;0.22;0.10;;;;;;;24.65;52.38;97728.47;5034659;28;20376;-63
2022/02/19 06:17:52;;;;;;;0.88;0.28;;;;;;;24.69;52.40;97735.88;5034085;28;20450;-63
2022/02/19 06:20:17;;;;;;;0.55;0.20;;;;;;;24.66;52.29;97733.69;5034448;28;20021;-63
2022/02/19 06:22:43;;;;;;;0.15;0.05;;;;;;;24.69;52.79;97730.38;5034189;28;20030;-63
2022/02/19 06:25:08;;;;;;;0.77;0.43;;;;;;;24.70;52.59;97726.53;5034039;28;20021;-63
2022/02/19 06:27:44;;;;;;;1.13;0.10;;;;;;;24.72;52.83;97739.97;5045371;28;20025;-62
2022/02/19 06:30:10;;;;;;;0.25;0.10;;;;;;;24.73;52.55;97753.41;5051569;28;20793;-63
2022/02/19 06:32:35;;;;;;;0.68;0.20;;;;;;;24.74;52.53;97752.31;5033940;28;20480;-62
2022/02/19 06:35:01;;;;;;;0.38;0.20;;;;;;;24.74;52.70;97759.72;5034275;28;20025;-63
2022/02/19 06:37:26;;;;;;;0.35;0.15;;;;;;;24.74;52.36;97757.81;5034078;28;20468;-63
2022/02/19 06:39:52;;;;;;;1.23;0.20;;;;;;;24.76;51.81;97769.31;5033384;28;20036;-63
2022/02/19 06:42:17;;;;;;;1.42;0.25;;;;;;;24.77;51.63;97770.13;5032658;28;20018;-64
2022/02/19 06:44:42;;;;;;;1.45;0.47;;;;;;;24.81;51.48;97776.69;5033781;28;20017;-62
2022/02/19 06:47:07;;;;;;;0.30;0.00;;;;;;;24.79;51.53;97779.72;5033807;28;20026;-63
2022/02/19 06:49:33;;;;;;;0.60;0.20;;;;;;;24.80;50.92;97784.13;5033772;28;20071;-63
2022/02/19 06:51:58;;;;;;;0.25;0.10;;;;;;;24.80;50.79;97786.03;5033543;28;20491;-63
2022/02/19 06:54:23;;;;;;;0.20;0.05;;;;;;;24.83;51.20;97786.28;5033739;28;20144;-63
2022/02/19 06:56:49;;;;;;;0.30;0.10;;;;;;;24.82;51.24;97798.38;5037898;28;20029;-63
2022/02/19 06:59:14;;;;;;;0.17;0.10;;;;;;;24.83;51.07;97801.94;5053655;28;20102;-63
2022/02/19 07:01:39;;;;;;;0.63;0.20;;;;;;;24.84;51.24;97809.91;5039896;28;20018;-62
2022/02/19 07:04:04;;;;;;;0.77;0.35;;;;;;;24.85;50.43;97819.78;5033437;28;20029;-63
2022/02/19 07:06:30;;;;;;;1.00;0.20;;;;;;;24.87;50.76;97808.53;5033554;28;20376;-63
2022/02/19 07:08:55;;;;;;;0.45;0.20;;;;;;;24.87;50.43;97825.81;5033228;28;20025;-63
2022/02/19 07:11:20;;;;;;;0.43;0.20;;;;;;;24.88;51.42;97816.47;5033376;28;20029;-63
2022/02/19 07:13:45;;;;;;;0.20;0.20;;;;;;;24.90;50.59;97824.44;5033036;28;20022;-63
2022/02/19 07:16:11;;;;;;;0.22;0.22;;;;;;;24.88;51.34;97832.16;5033365;28;20037;-63
2022/02/19 07:18:36;;;;;;;0.32;0.03;;;;;;;24.90;50.40;97841.75;5033142;28;20090;-62
2022/02/19 07:21:02;;;;;;;0.98;0.20;;;;;;;24.90;50.30;97847.22;5033083;28;20021;-62
2022/02/19 07:23:27;;;;;;;1.65;0.20;;;;;;;24.93;50.58;97851.31;5033273;28;20032;-62
2022/02/19 07:25:53;;;;;;;0.90;0.30;;;;;;;24.93;50.40;97867.81;5032772;28;20465;-62
2022/02/19 07:28:18;;;;;;;1.63;0.20;;;;;;;24.96;50.95;97871.91;5052599;28;20036;-63
2022/02/19 07:30:44;;;;;;;0.25;0.00;;;;;;;24.94;50.32;97868.63;5052806;28;20025;-62
2022/02/19 07:33:10;;;;;;;0.32;0.28;;;;;;;24.94;51.56;97880.44;5052876;28;20025;-63
2022/02/19 07:35:36;;;;;;;0.30;0.10;;;;;;;24.95;50.83;97882.09;5052698;28;20028;-63
2022/02/19 07:38:02;;;;;;;0.40;0.30;;;;;;;24.97;51.01;97885.38;5052777;28;20020;-63
2022/02/19 07:40:28;;;;;;;0.30;0.20;;;;;;;24.97;50.98;97882.63;5052869;28;20039;-63
2022/02/19 07:42:54;;;;;;;0.10;0.10;;;;;;;24.97;50.82;97868.88;5052548;28;20025;-63
2022/02/19 07:45:19;;;;;;;0.32;0.10;;;;;;;24.99;50.70;97883.16;5052792;28;20021;-63
2022/02/19 07:47:44;;;;;;;0.22;0.20;;;;;;;25.00;49.85;97884.00;5052385;28;20463;-63
2022/02/19 07:58:26;;;;;;;1.52;0.13;;;;;;;25.00;50.13;97919.72;5032779;28;20044;-63
2022/02/19 08:00:58;;;;;;;2.08;0.20;;;;;;;25.02;50.17;97925.75;5032404;28;20517;-63
2022/02/19 08:03:26;;;;;;;0.20;0.10;;;;;;;25.00;49.83;97927.97;5031296;28;20025;-63
2022/02/19 08:05:52;;;;;;;0.65;0.10;;;;;;;25.04;49.94;97945.56;5032221;28;20488;-63
2022/02/19 08:08:18;;;;;;;0.10;0.03;;;;;;;25.03;49.68;97949.41;5032861;28;20044;-63
2022/02/19 08:10:46;;;;;;;0.28;0.10;;;;;;;25.04;49.66;97945.56;5032351;28;20025;-63
2022/02/19 08:13:12;;;;;;;0.57;0.10;;;;;;;25.02;49.79;97965.03;5032400;28;20018;-63
2022/02/19 08:15:38;;;;;;;0.30;0.13;;;;;;;25.05;50.05;97972.75;5032300;28;20123;-62
2022/02/19 08:18:05;;;;;;;0.65;0.10;;;;;;;25.04;49.79;97984.03;5032345;28;20560;-63
2022/02/19 08:20:31;;;;;;;0.13;0.10;;;;;;;25.03;49.81;97991.44;5032398;28;20052;-62
2022/02/19 08:22:59;;;;;;;1.00;0.30;;;;;;;25.07;49.18;98005.44;5032143;28;20026;-63
2022/02/19 08:25:26;;;;;;;0.43;0.10;;;;;;;25.06;50.29;98003.78;5032393;28;20040;-62
2022/02/19 08:27:51;;;;;;;0.22;0.05;;;;;;;25.04;49.68;98008.75;5049161;28;20098;-63
2022/02/19 08:30:16;;;;;;;0.43;0.10;;;;;;;25.07;49.78;98016.44;5052216;28;20080;-63
2022/02/19 08:32:41;;;;;;;0.93;0.10;;;;;;;25.07;50.27;98027.44;5052334;28;20021;-63
2022/02/19 08:35:07;;;;;;;0.70;0.20;;;;;;;25.07;49.82;98038.41;5052095;28;20479;-63
2022/02/19 08:37:34;;;;;;;0.32;0.10;;;;;;;25.08;49.51;98029.06;5052087;28;20032;-62
2022/02/19 08:39:59;;;;;;;0.77;0.10;;;;;;;25.05;50.08;98035.97;5051991;28;20029;-62
2022/02/19 08:42:24;;;;;;;1.08;0.43;;;;;;;25.08;49.40;98046.38;5052434;28;20056;-63
2022/02/19 08:44:50;;;;;;;0.95;0.20;;;;;;;25.08;50.35;98051.06;5051865;28;20104;-63
2022/02/19 08:47:15;;;;;;;0.73;0.15;;;;;;;25.09;50.07;98055.44;5052161;28;20049;-63
2022/02/19 08:49:40;;;;;;;0.35;0.20;;;;;;;25.08;49.93;98073.88;5051876;28;20455;-63
2022/02/19 08:52:06;;;;;;;0.20;0.10;;;;;;;25.12;49.59;98079.59;5052191;28;20032;-63
2022/02/19 08:54:32;;;;;;;0.30;0.20;;;;;;;25.13;49.74;98097.75;5040543;28;20477;-62
2022/02/19 08:56:58;;;;;;;0.45;0.10;;;;;;;25.12;49.37;98094.19;5042047;28;20029;-63
2022/02/19 08:59:23;;;;;;;0.95;0.20;;;;;;;25.11;49.42;98103.53;5052044;28;20024;-62
2022/02/19 09:01:48;;;;;;;0.75;0.10;;;;;;;25.13;49.28;98108.75;5051572;28;20403;-63
2022/02/19 09:04:14;;;;;;;0.10;0.00;;;;;;;25.12;49.74;98129.09;5054617;28;20100;-63
2022/02/19 09:06:39;;;;;;;0.10;0.10;;;;;;;25.12;49.54;98131.84;5055533;28;20032;-63
2022/02/19 09:09:06;;;;;;;0.25;0.05;;;;;;;25.13;49.64;98144.47;5055644;28;20043;-63
2022/02/19 09:11:32;;;;;;;0.32;0.00;;;;;;;25.13;49.67;98160.97;5055613;28;20016;-63
2022/02/19 09:13:58;;;;;;;0.95;0.38;;;;;;;25.15;49.50;98161.50;5055340;28;20104;-64
2022/02/19 09:16:29;;;;;;;1.63;0.20;;;;;;;25.14;49.34;98168.09;5051342;28;20025;-63
2022/02/19 09:18:55;;;;;;;0.90;0.50;;;;;;;25.16;49.62;98172.22;5035325;28;20025;-63
2022/02/19 09:21:20;;;;;;;0.70;0.15;;;;;;;25.14;49.03;98185.41;5035890;28;20072;-63
2022/02/19 09:23:45;;;;;;;0.43;0.10;;;;;;;25.18;49.66;98185.69;5035204;28;20040;-63
2022/02/19 09:26:10;;;;;;;0.80;0.10;;;;;;;25.14;49.66;98192.84;5035443;28;20032;-63
2022/02/19 09:28:36;;;;;;;0.88;0.20;;;;;;;25.16;49.58;98201.63;5034789;28;20029;-63
2022/02/19 09:31:02;;;;;;;0.50;0.30;;;;;;;25.18;49.26;98204.91;5035115;28;20033;-63
2022/02/19 09:33:27;;;;;;;0.40;0.10;;;;;;;25.14;49.48;98215.66;5035390;28;20095;-63
2022/02/19 09:35:53;;;;;;;0.10;0.10;;;;;;;25.17;49.81;98220.59;5034921;28;20469;-63
2022/02/19 09:38:19;;;;;;;1.02;0.43;;;;;;;25.18;49.51;98226.91;5035227;28;20468;-63
2022/02/19 09:40:45;;;;;;;1.00;0.10;;;;;;;25.19;49.85;98234.06;5034932;28;20022;-63
2022/02/19 09:43:11;;;;;;;2.35;0.20;;;;;;;25.17;49.91;98244.50;5035173;28;20025;-63
2022/02/19 09:45:37;;;;;;;0.75;0.20;;;;;;;25.16;49.60;98251.13;5034881;28;20480;-62
2022/02/19 09:48:09;;;;;;;0.40;0.20;;;;;;;25.18;49.15;98270.91;5051879;28;20040;-63
2022/02/19 09:50:34;;;;;;;1.70;0.30;;;;;;;25.18;49.35;98270.91;5054881;28;20035;-63
2022/02/19 09:53:03;;;;;;;0.05;0.05;;;;;;;25.19;49.26;98286.28;5048107;28;20389;-64
2022/02/19 09:55:28;;;;;;;0.17;0.10;;;;;;;25.20;49.46;98296.22;5034804;28;20057;-63
2022/02/19 09:57:53;;;;;;;0.43;0.35;;;;;;;25.23;49.64;98306.66;5034533;28;20041;-63
2022/02/19 10:00:28;;;;;;;0.55;0.10;;;;;;;25.21;49.29;98316.28;5034772;28;20026;-63
2022/02/19 10:02:53;;;;;;;1.00;0.10;;;;;;;25.20;49.91;98323.69;5034550;28;20066;-63
2022/02/19 10:05:19;;;;;;;0.90;0.15;;;;;;;25.17;49.50;98335.22;5034663;28;20439;-63
2022/02/19 10:08:00;;;;;;;0.77;0.10;;;;;;;25.21;49.21;98338.28;5034406;28;20025;-63
2022/02/19 10:10:26;;;;;;;0.85;0.10;;;;;;;25.25;50.23;98350.34;5034646;28;20473;-63
2022/02/19 10:12:52;;;;;;;0.25;0.10;;;;;;;25.24;49.35;98359.72;5034791;28;20155;-63
2022/02/19 10:15:18;;;;;;;0.35;0.20;;;;;;;25.20;49.76;98364.94;5032540;28;20018;-63
2022/02/19 10:17:43;;;;;;;1.08;0.10;;;;;;;25.24;49.16;98384.44;5034233;28;20032;-63
2022/02/19 10:20:14;;;;;;;0.98;0.20;;;;;;;25.19;49.57;98391.59;5034407;28;20028;-63
2022/02/19 10:22:41;;;;;;;0.55;0.20;;;;;;;25.20;49.06;98389.69;5036624;28;20025;-63
2022/02/19 10:25:08;;;;;;;0.43;0.08;;;;;;;25.21;49.36;98407.81;5046678;28;20032;-63
2022/02/19 10:27:43;;;;;;;0.28;0.20;;;;;;;25.24;49.43;98417.44;5034172;28;20351;-62
2022/02/19 10:30:09;;;;;;;0.30;0.10;;;;;;;25.27;49.54;98414.97;5034146;28;20025;-63
2022/02/19 10:32:46;;;;;;;0.47;0.10;;;;;;;25.25;49.47;98419.09;5034019;28;20453;-63
2022/02/19 10:35:11;;;;;;;0.52;0.10;;;;;;;25.25;49.24;98430.91;5032869;28;20545;-63
2022/02/19 10:37:48;;;;;;;2.00;0.13;;;;;;;25.28;48.94;98446.84;5033906;28;20032;-63
2022/02/19 10:40:28;;;;;;;0.17;0.00;;;;;;;25.27;49.49;98450.72;5034112;28;20036;-63
2022/02/19 10:42:55;;;;;;;1.10;0.30;;;;;;;25.25;49.11;98452.09;5033809;28;20483;-63
2022/02/19 10:45:21;;;;;;;0.73;0.10;;;;;;;25.26;49.20;98462.81;5033973;28;20112;-63
2022/02/19 10:47:46;;;;;;;0.65;0.10;;;;;;;25.26;49.32;98470.22;5050163;28;20207;-63
2022/02/19 10:50:16;;;;;;;0.30;0.10;;;;;;;25.25;49.26;98483.16;5053788;28;20020;-63
2022/02/19 10:52:44;;;;;;;1.73;0.10;;;;;;;25.24;49.65;98478.75;5053856;28;20021;-63
2022/02/19 10:55:14;;;;;;;1.25;0.40;;;;;;;25.26;49.55;98492.22;5053516;28;20558;-63
2022/02/19 10:57:44;;;;;;;0.45;0.15;;;;;;;25.25;49.55;98502.41;5053403;28;20021;-62
2022/02/19 11:00:18;;;;;;;1.00;0.20;;;;;;;25.30;48.76;98510.66;5053512;28;20028;-62
2022/02/19 11:02:46;;;;;;;0.30;0.20;;;;;;;25.27;49.20;98516.69;5053431;28;20151;-63
2022/02/19 11:05:13;;;;;;;0.10;0.05;;;;;;;25.26;48.96;98534.28;5053586;28;20028;-63
2022/02/19 11:07:40;;;;;;;1.88;0.25;;;;;;;25.30;49.60;98540.06;5053170;28;20467;-62
2022/02/19 11:10:07;;;;;;;1.95;0.52;;;;;;;25.27;49.32;98538.69;5053280;28;20481;-62
2022/02/19 11:12:32;;;;;;;0.70;0.20;;;;;;;25.31;48.54;98550.78;5053202;28;20058;-63
2022/02/19 11:14:58;;;;;;;0.98;0.17;;;;;;;25.27;49.87;98557.94;5053116;28;20082;-63
2022/02/19 11:17:24;;;;;;;1.67;0.20;;;;;;;25.29;49.36;98566.75;5039412;28;20112;-63
2022/02/19 11:19:49;;;;;;;0.40;0.13;;;;;;;25.29;49.34;98579.66;5032997;28;20503;-63
2022/02/19 11:22:18;;;;;;;0.52;0.20;;;;;;;25.30;48.86;98584.88;5033307;28;20037;-63
2022/02/19 11:24:45;;;;;;;0.85;0.38;;;;;;;25.33;48.98;98591.75;5033047;28;20040;-63
2022/02/19 11:27:11;;;;;;;0.90;0.13;;;;;;;25.31;48.84;98600.28;5032183;28;20029;-63
2022/02/19 11:29:37;;;;;;;1.35;0.25;;;;;;;25.31;48.70;98611.28;5032977;28;20065;-62
2022/02/19 11:32:04;;;;;;;0.73;0.30;;;;;;;25.31;48.99;98614.03;5032837;28;20111;-63
2022/02/19 11:34:29;;;;;;;0.60;0.43;;;;;;;25.29;48.92;98618.97;5032993;28;20029;-62
2022/02/19 11:37:12;;;;;;;1.25;1.15;;;;;;;25.32;48.99;98632.19;5032747;28;20032;-63